Bei Facebook empfehlenBei Twitter postenGoogle plusPinterest

Das Wetter im Erzgebirge am 01.08.2017

Wetter und Klima am 01.08.2017 Holzhau im Erzgebirge (630m ü.NN)
Letzte gemessene Temperatur und Uhrzeit der Messung23:45:00 Uhr18.20 °C
Temperatur (Maximum / Höchstwert) und Uhrzeit der Messung16:45:00 Uhr33.60 °C
Temperatur (Minimum / Tiefstwert) und Uhrzeit der Messung01:00:0015.30 °C
Errechneter Absolutwert der Temperaturschwankungen zwischen Tmin und Tmax des Tages18.30 K
Errechnete Tagesmitteltemperatur23.30938 °C
Gesamt - Niederschlag des Tages (in flüssiger Form)3.62 Liter / m²
Luftdruck (Maximum / Höchstwert) und Zeitpunkt der Messung23:45:00 Uhr1016.80 hPa
Luftdruck (Minimum / Tiefstwert) und Zeitpunkt der Messung05:30:00 Uhr1012.60 hPa
Errechneter Absolutwert der Luftdruckschwankungen des Tages4.20 hPa
Höchste gemessene Windgeschwindigkeit und Uhrzeit der Messung21:15:00 Uhr92.16 km/h
Errechnete Windhäufigkeit in Relation zu den Messwerten des Tages25.00000 %
Niedrigste Windkühle (Windchill) und Zeitpunkt der Messung01:00:00 Uhr15.30 °C
Taupunkt (Maximum / Höchstwert) und Uhrzeit der Messung12:30:00 Uhr19.40 °C
Taupunkt (Minimum / Tiefstwert) und Uhrzeit der Messung05:45:0013.10 °C
Anzahl der automatisch eingelesenen Messwerte 96

Detaillierte Wetter- und Klima- Messwerte für den 01.08.2017 in Holzhau im Erzgebirge (630m ü.NN)
ZeitTemperaturLuftdruckRel. LuftfeuchteWindWindrichtungWindchillTaupunktNiederschlag l/m²
23:45:0018.20 °C1016.80 hPa88.00 %16.20 °C3.62
23:30:0018.90 °C1016.80 hPa87.00 %46.80 km/hNW19.00 °C16.70 °C1.03
23:15:0019.60 °C1015.00 hPa82.00 %16.40 °C 
23:00:0020.10 °C1014.80 hPa80.00 %16.50 °C 
22:45:0020.30 °C1013.60 hPa79.00 %16.50 °C 
22:30:0020.60 °C1013.70 hPa77.00 %16.40 °C 
22:15:0021.00 °C1014.20 hPa76.00 %16.60 °C 
22:00:0021.30 °C1014.40 hPa75.00 %16.70 °C 
21:45:0021.60 °C1014.30 hPa74.00 %16.80 °C 
21:30:0022.30 °C1013.80 hPa70.00 %16.60 °C 
21:15:0022.90 °C1014.00 hPa68.00 %92.16 km/hWSW23.50 °C16.70 °C 
21:00:0023.60 °C1013.90 hPa67.00 %14.40 km/hSSW23.60 °C17.10 °C 
20:45:0023.70 °C1014.20 hPa70.00 %33.84 km/hSSW25.00 °C17.90 °C 
20:30:0023.80 °C1014.20 hPa69.00 %63.36 km/hW24.90 °C17.80 °C 
20:15:0024.60 °C1014.00 hPa66.00 %17.80 °C 
20:00:0025.50 °C1013.10 hPa63.00 %17.90 °C 
19:45:0026.20 °C1013.10 hPa63.00 %18.60 °C 
19:30:0026.80 °C1013.50 hPa61.00 %18.60 °C 
19:15:0027.60 °C1013.50 hPa57.00 %18.30 °C 
19:00:0028.90 °C1013.30 hPa52.00 %18.10 °C 
18:45:0030.60 °C1013.30 hPa50.00 %19.00 °C 
18:30:0031.80 °C1013.50 hPa43.00 %17.70 °C 
18:15:0032.00 °C1013.20 hPa44.00 %18.20 °C 
18:00:0032.30 °C1013.50 hPa43.00 %18.10 °C 
17:45:0032.60 °C1013.30 hPa44.00 %18.80 °C 
17:30:0032.60 °C1013.80 hPa42.00 %18.00 °C 
17:15:0033.20 °C1013.60 hPa41.00 %18.20 °C 
17:00:0033.40 °C1013.90 hPa40.00 %18.00 °C 
16:45:0033.60 °C1013.80 hPa39.00 %17.70 °C 
16:30:0033.60 °C1013.90 hPa40.00 %18.10 °C 
16:15:0032.90 °C1013.50 hPa42.00 %18.30 °C 
16:00:0032.90 °C1013.80 hPa42.00 %18.30 °C 
15:45:0032.70 °C1013.60 hPa45.00 %19.20 °C 
15:30:0032.00 °C1013.80 hPa45.00 %19.44 km/hSO34.70 °C18.60 °C 
15:15:0031.30 °C1014.10 hPa48.00 %2.52 km/hWSW31.30 °C19.00 °C 
15:00:0030.90 °C1014.00 hPa49.00 %15.48 km/hSW30.90 °C18.90 °C 
14:45:0030.70 °C1014.10 hPa49.00 %18.80 °C 
14:30:0030.60 °C1014.10 hPa51.00 %27.36 km/hSW33.20 °C19.30 °C 
14:15:0030.40 °C1014.20 hPa50.00 %18.80 °C 
14:00:0030.20 °C1014.20 hPa50.00 %18.60 °C 
13:45:0030.00 °C1014.10 hPa52.00 %19.10 °C 
13:30:0029.90 °C1014.20 hPa53.00 %19.30 °C 
13:15:0029.40 °C1014.20 hPa53.00 %3.96 km/hSO29.40 °C18.80 °C 
13:00:0029.60 °C1014.10 hPa52.00 %5.04 km/hOSO29.60 °C18.70 °C 
12:45:0029.90 °C1014.00 hPa52.00 %32.40 km/hSSW32.40 °C19.00 °C 
12:30:0029.70 °C1014.20 hPa54.00 %19.40 °C 
12:15:0028.80 °C1014.50 hPa57.00 %19.40 °C 
12:00:0027.70 °C1015.00 hPa58.00 %19.44 km/hSW29.80 °C18.70 °C 
11:45:0027.20 °C1015.00 hPa60.00 %18.80 °C 
11:30:0026.60 °C1014.60 hPa62.00 %18.70 °C 
11:15:0026.20 °C1014.20 hPa61.00 %18.10 °C 
11:00:0025.90 °C1014.80 hPa64.00 %18.60 °C 
10:45:0024.70 °C1015.10 hPa68.00 %18.40 °C 
10:30:0023.50 °C1015.10 hPa69.00 %17.50 °C 
10:15:0022.80 °C1015.10 hPa71.00 %17.30 °C 
10:00:0022.10 °C1015.30 hPa72.00 %36.36 km/hSO23.10 °C16.80 °C 
09:45:0021.50 °C1015.30 hPa73.00 %29.88 km/hO22.50 °C16.50 °C 
09:30:0020.90 °C1015.30 hPa74.00 %50.40 km/hSO21.40 °C16.10 °C 
09:15:0021.00 °C1015.70 hPa74.00 %19.44 km/hSSO22.20 °C16.20 °C 
09:00:0021.40 °C1016.00 hPa72.00 %16.10 °C 
08:45:0021.80 °C1015.40 hPa74.00 %17.00 °C 
08:30:0020.80 °C1015.10 hPa76.00 %16.40 °C 
08:15:0020.40 °C1015.40 hPa77.00 %16.20 °C 
08:00:0019.70 °C1015.80 hPa78.00 %56.88 km/hSO19.80 °C15.80 °C 
07:45:0019.40 °C1016.20 hPa78.00 %37.44 km/hSW19.80 °C15.50 °C 
07:30:0018.90 °C1015.60 hPa79.00 %5.04 km/hW18.90 °C15.20 °C 
07:15:0018.20 °C1016.30 hPa81.00 %14.90 °C 
07:00:0017.40 °C1013.40 hPa82.00 %14.30 °C 
06:45:0017.20 °C1013.30 hPa82.00 %14.10 °C 
06:30:0016.90 °C1013.10 hPa83.00 %14.00 °C 
06:15:0016.40 °C1013.20 hPa84.00 %13.70 °C 
06:00:0016.10 °C1013.10 hPa84.00 %13.40 °C 
05:45:0016.20 °C1012.70 hPa82.00 %13.10 °C 
05:30:0016.70 °C1012.60 hPa80.00 %13.20 °C 
05:15:0017.50 °C1012.70 hPa78.00 %13.60 °C 
05:00:0017.90 °C1012.80 hPa77.00 %13.80 °C 
04:45:0018.10 °C1012.80 hPa78.00 %14.20 °C 
04:30:0017.40 °C1012.60 hPa79.00 %9.00 km/hOSO17.40 °C13.70 °C 
04:15:0017.00 °C1012.90 hPa81.00 %13.70 °C 
04:00:0016.90 °C1013.10 hPa82.00 %13.80 °C 
03:45:0016.90 °C1013.30 hPa81.00 %2.52 km/hSO16.90 °C13.60 °C 
03:30:0017.30 °C1013.30 hPa81.00 %14.00 °C 
03:15:0017.30 °C1013.20 hPa81.00 %14.00 °C 
03:00:0017.40 °C1013.20 hPa82.00 %12.96 km/hSO17.40 °C14.30 °C 
02:45:0016.90 °C1013.20 hPa83.00 %14.00 °C 
02:30:0016.40 °C1013.20 hPa84.00 %13.70 °C 
02:15:0016.60 °C1013.50 hPa84.00 %13.90 °C 
02:00:0016.60 °C1013.70 hPa85.00 %14.40 km/hSO16.60 °C14.10 °C 
01:45:0015.80 °C1013.70 hPa87.00 %13.60 °C 
01:30:0015.40 °C1014.00 hPa87.00 %13.20 °C 
01:15:0015.60 °C1014.00 hPa87.00 %13.40 °C 
01:00:0015.30 °C1013.70 hPa87.00 %13.20 °C 
00:45:0015.60 °C1014.10 hPa86.00 %13.30 °C 
00:30:0015.40 °C1014.30 hPa87.00 %13.20 °C 
00:15:0015.60 °C1014.30 hPa85.00 %13.10 °C 
00:00:0016.10 °C1014.40 hPa84.00 %13.40 °C 

Permanenter Link zu dieser Seite: Wetter im Erzgebirge am 01.08.2017
Performance-Info: Die Erstellung der Seite / Statistik(en) / Tabelle(n) erforderte 5 Datenbankserver-Abfrage(n) und dauerte 101 Millisekunden. (Dieser Messwert ist von der Gesamt-Auslastung des Servers abhängig.)
Erzgebirge - Wetter | Erzgebirge - Wetter (Mobilgeräte) | Komplette Klimadatenbank